createdAt,value
2023-03-29T00:03:52.059Z,56.28
2023-03-29T00:08:55.164Z,56.60
2023-03-29T00:13:58.141Z,56.88
2023-03-29T00:19:01.600Z,56.88
2023-03-29T00:24:04.773Z,57.06
2023-03-29T00:29:07.723Z,57.02
2023-03-29T00:34:10.787Z,57.09
2023-03-29T00:39:13.703Z,57.26
2023-03-29T00:45:06.227Z,57.35
2023-03-29T00:50:39.472Z,57.35
2023-03-29T00:56:04.593Z,57.05
2023-03-29T01:01:15.698Z,57.22
2023-03-29T01:06:21.790Z,57.08
2023-03-29T01:11:34.576Z,56.79
2023-03-29T01:16:38.591Z,56.43
2023-03-29T01:21:52.032Z,56.75
2023-03-29T01:27:09.784Z,56.46
2023-03-29T01:32:47.998Z,56.59
2023-03-29T01:38:34.441Z,56.36
2023-03-29T01:43:50.754Z,56.04
2023-03-29T01:49:03.682Z,56.38
2023-03-29T01:54:11.975Z,56.35
2023-03-29T01:59:22.782Z,56.67
2023-03-29T02:04:35.301Z,56.50
2023-03-29T02:09:38.944Z,56.96
2023-03-29T02:14:41.877Z,56.83
2023-03-29T02:19:51.158Z,57.08
2023-03-29T02:24:59.499Z,56.83
2023-03-29T02:30:02.517Z,57.16
2023-03-29T02:35:13.926Z,57.35
2023-03-29T02:40:18.145Z,57.55
2023-03-29T02:45:23.064Z,57.78
2023-03-29T02:50:32.300Z,58.04
2023-03-29T02:55:36.211Z,58.12
2023-03-29T03:00:45.885Z,58.34
2023-03-29T03:05:49.299Z,58.50
2023-03-29T03:10:52.603Z,58.86
2023-03-29T03:15:56.279Z,59.00
2023-03-29T03:21:02.453Z,59.28
2023-03-29T03:26:05.575Z,59.19
2023-03-29T03:31:08.508Z,59.40
2023-03-29T03:36:11.608Z,59.44
2023-03-29T03:41:14.581Z,59.64
2023-03-29T03:46:17.956Z,59.91
2023-03-29T03:51:21.008Z,60.01
2023-03-29T03:56:23.916Z,60.44
2023-03-29T04:01:27.463Z,60.71
2023-03-29T04:06:30.737Z,60.91
2023-03-29T04:11:33.756Z,60.94
2023-03-29T04:16:37.043Z,60.92
2023-03-29T04:21:40.037Z,61.15
2023-03-29T04:26:43.894Z,60.94
2023-03-29T04:31:46.874Z,61.09
2023-03-29T04:36:50.380Z,61.31
2023-03-29T04:41:53.279Z,61.67
2023-03-29T04:46:56.203Z,61.74
2023-03-29T04:52:00.928Z,61.53
2023-03-29T04:57:08.555Z,61.16
2023-03-29T05:02:11.646Z,60.74
2023-03-29T05:07:15.731Z,60.37
2023-03-29T05:12:18.588Z,58.67
2023-03-29T05:17:22.149Z,55.99
2023-03-29T05:22:25.112Z,52.85
2023-03-29T05:27:28.365Z,51.71
2023-03-29T05:32:31.397Z,50.68
2023-03-29T05:37:34.833Z,47.46
2023-03-29T05:42:39.083Z,47.25
2023-03-29T05:47:42.066Z,47.54
2023-03-29T05:52:45.028Z,48.72
2023-03-29T05:57:47.983Z,49.71
2023-03-29T06:02:59.269Z,50.87
2023-03-29T06:08:10.045Z,51.32
2023-03-29T06:13:13.106Z,52.66
2023-03-29T06:18:16.415Z,52.37
2023-03-29T06:23:23.282Z,52.55
2023-03-29T06:28:26.431Z,51.92
2023-03-29T06:33:30.720Z,52.31
2023-03-29T06:38:34.139Z,52.19
2023-03-29T06:43:37.789Z,52.23
2023-03-29T06:48:41.533Z,53.45
2023-03-29T06:53:44.467Z,52.63
2023-03-29T06:58:47.449Z,52.77
2023-03-29T07:03:50.520Z,51.58
2023-03-29T07:08:53.693Z,51.29
2023-03-29T07:13:56.609Z,50.86
2023-03-29T07:18:59.652Z,50.38
2023-03-29T07:24:04.677Z,49.63
2023-03-29T07:29:07.812Z,49.06
2023-03-29T07:34:13.939Z,49.22
2023-03-29T07:39:16.890Z,48.88
2023-03-29T07:44:21.654Z,49.03
2023-03-29T07:49:24.840Z,47.74
2023-03-29T07:54:27.842Z,46.94
2023-03-29T07:59:30.999Z,46.75
2023-03-29T08:04:34.153Z,46.05
2023-03-29T08:09:37.539Z,46.04
2023-03-29T08:14:40.682Z,46.22
2023-03-29T08:19:51.026Z,44.46
2023-03-29T08:24:55.381Z,44.47
2023-03-29T08:29:58.181Z,42.14
2023-03-29T08:35:03.903Z,40.28
2023-03-29T08:40:07.798Z,42.03
2023-03-29T08:45:35.521Z,41.44
2023-03-29T08:50:48.140Z,37.90
2023-03-29T08:55:53.587Z,37.62
2023-03-29T09:01:03.629Z,40.53
2023-03-29T09:06:10.902Z,40.98
2023-03-29T09:11:28.593Z,40.93
2023-03-29T09:17:30.694Z,39.58
2023-03-29T09:23:15.084Z,38.78
2023-03-29T09:28:38.284Z,37.58
2023-03-29T09:33:52.380Z,38.41
2023-03-29T09:38:55.876Z,35.60
2023-03-29T09:44:03.473Z,36.87
2023-03-29T09:49:12.496Z,37.90
2023-03-29T09:54:15.808Z,39.01
2023-03-29T09:59:19.052Z,36.33
2023-03-29T10:04:22.671Z,37.59
2023-03-29T10:09:29.278Z,38.41
2023-03-29T10:14:45.048Z,39.39
2023-03-29T10:20:04.235Z,38.31
2023-03-29T10:25:17.166Z,37.18
2023-03-29T10:30:26.101Z,38.28
2023-03-29T10:35:41.982Z,37.41
2023-03-29T10:40:51.870Z,37.17
2023-03-29T10:46:05.210Z,35.73
2023-03-29T10:51:08.188Z,35.17
2023-03-29T10:56:40.335Z,36.52
2023-03-29T11:02:07.999Z,36.55
2023-03-29T11:07:34.693Z,34.98
2023-03-29T11:13:00.445Z,34.53
2023-03-29T11:18:31.691Z,33.37
2023-03-29T11:24:30.016Z,35.88
2023-03-29T11:30:00.945Z,36.33
2023-03-29T11:35:25.490Z,34.95
2023-03-29T11:40:57.443Z,34.08
2023-03-29T11:46:10.073Z,33.91
2023-03-29T11:51:29.341Z,34.77
2023-03-29T11:56:43.981Z,36.73
2023-03-29T12:01:55.999Z,36.54
2023-03-29T12:07:32.328Z,36.75
2023-03-29T12:13:12.143Z,36.81
2023-03-29T12:18:30.416Z,35.28
2023-03-29T12:23:33.956Z,36.86
2023-03-29T12:29:05.395Z,35.14
2023-03-29T12:34:42.584Z,35.74
2023-03-29T12:39:45.762Z,34.91
2023-03-29T12:44:59.251Z,34.23
2023-03-29T12:50:03.477Z,36.56
2023-03-29T12:55:49.192Z,36.45
2023-03-29T13:01:23.398Z,35.18
2023-03-29T13:06:34.075Z,33.97
2023-03-29T13:11:42.760Z,32.93
2023-03-29T13:16:46.700Z,33.16
2023-03-29T13:22:17.100Z,34.74
2023-03-29T13:27:39.759Z,34.60
2023-03-29T13:33:13.471Z,33.81
2023-03-29T13:38:22.262Z,34.84
2023-03-29T13:43:41.323Z,34.02
2023-03-29T13:48:53.815Z,32.69
2023-03-29T13:54:23.451Z,32.03
2023-03-29T14:00:11.910Z,32.29
2023-03-29T14:05:20.811Z,31.57
2023-03-29T14:10:35.029Z,31.95
2023-03-29T14:15:48.668Z,33.32
2023-03-29T14:20:56.246Z,32.87
2023-03-29T14:26:34.589Z,34.18
2023-03-29T14:31:40.736Z,33.32
2023-03-29T14:36:49.380Z,32.99
2023-03-29T14:41:57.899Z,32.83
2023-03-29T14:47:03.088Z,33.19
2023-03-29T14:52:06.665Z,34.07
2023-03-29T14:57:16.599Z,32.97
2023-03-29T15:02:32.430Z,33.00
2023-03-29T15:07:40.022Z,32.73
2023-03-29T15:12:43.356Z,32.43
2023-03-29T15:17:50.881Z,32.84
2023-03-29T15:23:00.161Z,32.86
2023-03-29T15:28:04.349Z,32.30
2023-03-29T15:33:19.384Z,32.26
2023-03-29T15:38:30.231Z,31.83
2023-03-29T15:43:39.835Z,32.28
2023-03-29T15:48:43.508Z,32.19
2023-03-29T15:53:46.498Z,31.61
2023-03-29T15:58:49.707Z,32.62
2023-03-29T16:03:52.686Z,32.49
2023-03-29T16:08:57.355Z,32.76
2023-03-29T16:14:01.014Z,32.26
2023-03-29T16:19:04.048Z,33.16
2023-03-29T16:24:12.091Z,33.74
2023-03-29T16:29:17.429Z,33.50
2023-03-29T16:34:22.821Z,33.64
2023-03-29T16:39:25.826Z,34.11
2023-03-29T16:44:29.072Z,34.12
2023-03-29T16:49:32.062Z,34.57
2023-03-29T16:54:34.952Z,35.15
2023-03-29T16:59:38.116Z,35.47
2023-03-29T17:04:41.125Z,35.93
2023-03-29T17:09:45.995Z,36.04
2023-03-29T17:14:49.248Z,36.20
2023-03-29T17:19:52.391Z,36.88
2023-03-29T17:24:55.388Z,37.16
2023-03-29T17:29:58.362Z,38.72
2023-03-29T17:35:01.355Z,40.18
2023-03-29T17:40:13.925Z,40.35
2023-03-29T17:45:17.251Z,40.58
2023-03-29T17:50:21.201Z,41.04
2023-03-29T17:55:24.277Z,41.44
2023-03-29T18:00:27.704Z,42.04
2023-03-29T18:05:30.714Z,42.03
2023-03-29T18:10:33.740Z,42.71
2023-03-29T18:15:36.976Z,43.13
2023-03-29T18:20:39.951Z,43.64
2023-03-29T18:25:42.961Z,43.89
2023-03-29T18:30:46.072Z,43.88
2023-03-29T18:35:51.355Z,43.74
2023-03-29T18:40:54.336Z,43.59
2023-03-29T18:45:57.692Z,44.21
2023-03-29T18:51:01.214Z,44.09
2023-03-29T18:56:06.611Z,44.25
2023-03-29T19:01:10.952Z,44.28
2023-03-29T19:06:15.258Z,44.19
2023-03-29T19:11:18.204Z,44.37
2023-03-29T19:16:21.278Z,44.64
2023-03-29T19:21:24.355Z,44.34
2023-03-29T19:26:29.548Z,44.47
2023-03-29T19:31:35.142Z,44.35
2023-03-29T19:36:38.354Z,44.60
2023-03-29T19:41:41.939Z,44.70
2023-03-29T19:46:44.989Z,45.08
2023-03-29T19:51:48.212Z,44.90
2023-03-29T19:56:52.857Z,45.10
2023-03-29T20:01:57.120Z,45.54
2023-03-29T20:07:00.233Z,45.76
2023-03-29T20:12:04.003Z,45.80
2023-03-29T20:17:07.382Z,46.02
2023-03-29T20:22:11.988Z,46.79
2023-03-29T20:27:15.905Z,47.10
2023-03-29T20:32:18.713Z,46.55
2023-03-29T20:37:23.148Z,46.36
2023-03-29T20:42:28.761Z,46.63
2023-03-29T20:47:31.845Z,47.12
2023-03-29T20:52:36.060Z,47.43
2023-03-29T20:57:40.658Z,47.25
2023-03-29T21:02:44.292Z,48.20
2023-03-29T21:07:48.153Z,47.81
2023-03-29T21:12:54.324Z,48.56
2023-03-29T21:17:57.393Z,48.69
2023-03-29T21:23:01.221Z,48.73
2023-03-29T21:28:04.154Z,48.68
2023-03-29T21:33:07.108Z,48.83
2023-03-29T21:38:10.098Z,49.03
2023-03-29T21:43:13.186Z,49.59
2023-03-29T21:48:17.854Z,49.33
2023-03-29T21:53:20.952Z,49.40
2023-03-29T21:58:23.925Z,49.92
2023-03-29T22:03:26.912Z,50.10
2023-03-29T22:08:31.400Z,50.50
2023-03-29T22:13:34.490Z,50.81
2023-03-29T22:18:44.211Z,50.62
2023-03-29T22:23:49.945Z,51.31
2023-03-29T22:28:54.127Z,51.18
2023-03-29T22:33:58.627Z,51.35
2023-03-29T22:39:01.822Z,51.77
2023-03-29T22:44:05.830Z,51.47
2023-03-29T22:49:08.649Z,51.80
2023-03-29T22:54:12.120Z,51.77
2023-03-29T22:59:15.970Z,51.65
2023-03-29T23:04:18.834Z,52.01
2023-03-29T23:09:22.206Z,51.87
2023-03-29T23:14:25.172Z,52.42
2023-03-29T23:19:28.209Z,52.11
2023-03-29T23:24:31.248Z,52.51
2023-03-29T23:29:34.624Z,52.74
2023-03-29T23:34:37.681Z,53.26
2023-03-29T23:39:40.720Z,53.01
2023-03-29T23:44:43.981Z,52.80
2023-03-29T23:49:46.978Z,53.31
2023-03-29T23:54:51.330Z,53.11
2023-03-29T23:59:56.028Z,53.90
